Time;durP1;ratioP1;P1;durP2;ratioP2;P2;SDS_P1;SDS_P2;PMS_P1;PMS_P2;Temp;Humidity;BMP_temperature;BMP_pressure;BME280_temperature;BME280_humidity;BME280_pressure;Samples;Min_cycle;Max_cycle;Signal;HPM_P1;HPM_P2
2022/09/30 00:00:20;;;;;;;7.63;1.73;;;;;;;8.95;100.00;100236.22;5030144;28;20029;-77
2022/09/30 00:02:45;;;;;;;2.70;1.30;;;;;;;9.10;100.00;100269.28;4996705;28;20399;-77
2022/09/30 00:05:11;;;;;;;3.30;1.30;;;;;;;9.14;100.00;100259.88;5032052;28;20087;-77
2022/09/30 00:07:37;;;;;;;1.88;1.35;;;;;;;9.20;100.00;100253.78;5030451;28;20493;-77
2022/09/30 00:10:03;;;;;;;3.35;1.20;;;;;;;9.36;100.00;100260.88;5031800;28;20021;-78
2022/09/30 00:12:29;;;;;;;1.58;1.17;;;;;;;9.43;100.00;100266.38;5013468;28;20395;-77
2022/09/30 00:14:55;;;;;;;1.75;1.10;;;;;;;9.53;100.00;100266.13;5014118;28;20336;-77
2022/09/30 00:17:21;;;;;;;3.80;1.10;;;;;;;9.55;100.00;100273.00;5013617;28;20116;-77
2022/09/30 00:19:46;;;;;;;1.83;1.17;;;;;;;9.57;100.00;100257.50;5025227;28;20036;-78
2022/09/30 00:22:12;;;;;;;2.45;1.00;;;;;;;9.68;100.00;100270.53;5031057;28;20361;-77
2022/09/30 00:24:38;;;;;;;2.65;1.30;;;;;;;9.74;100.00;100260.91;5013830;28;20056;-78
2022/09/30 00:27:03;;;;;;;3.60;1.50;;;;;;;9.78;100.00;100261.34;5029911;28;20030;-77
2022/09/30 00:29:29;;;;;;;1.90;1.25;;;;;;;9.80;100.00;100245.91;5029955;28;20379;-77
2022/09/30 00:31:55;;;;;;;4.22;1.00;;;;;;;9.88;100.00;100245.81;5029998;28;20033;-77
2022/09/30 00:34:20;;;;;;;2.90;1.30;;;;;;;9.87;100.00;100233.38;5031499;28;20395;-77
2022/09/30 00:36:49;;;;;;;1.10;0.90;;;;;;;9.87;100.00;100220.81;5029634;28;20030;-78
2022/09/30 00:39:20;;;;;;;2.25;1.05;;;;;;;9.89;100.00;100218.75;5004983;28;20090;-77
2022/09/30 00:41:50;;;;;;;3.85;1.20;;;;;;;9.80;100.00;100178.78;5013854;28;20048;-79
2022/09/30 00:44:44;;;;;;;13.07;1.15;;;;;;;9.89;100.00;100183.84;5013604;28;20029;-78
2022/09/30 00:47:34;;;;;;;1.77;0.82;;;;;;;9.87;100.00;100171.63;5011424;28;20029;-78
2022/09/30 00:50:09;;;;;;;2.92;1.08;;;;;;;9.82;100.00;100155.28;5013281;28;20045;-78
2022/09/30 00:52:35;;;;;;;2.60;1.08;;;;;;;9.81;100.00;100150.91;5026972;28;20033;-78
2022/09/30 00:55:03;;;;;;;1.48;0.93;;;;;;;9.89;100.00;100151.63;5012692;28;20045;-77
2022/09/30 00:57:29;;;;;;;2.47;1.17;;;;;;;9.91;100.00;100136.16;5029602;28;20456;-78
2022/09/30 00:59:55;;;;;;;4.10;1.10;;;;;;;9.97;100.00;100136.44;5012991;28;20038;-78
2022/09/30 01:02:21;;;;;;;1.40;0.98;;;;;;;9.97;100.00;100136.44;5029617;28;20021;-77
2022/09/30 01:04:46;;;;;;;3.63;1.33;;;;;;;10.03;100.00;100131.16;5030403;28;20356;-77
2022/09/30 01:07:13;;;;;;;1.77;1.08;;;;;;;10.06;100.00;100132.66;5029337;28;20120;-78
2022/09/30 01:09:40;;;;;;;1.58;1.13;;;;;;;10.07;100.00;100132.44;5006867;28;20091;-77
2022/09/30 01:12:16;;;;;;;2.83;1.00;;;;;;;10.14;100.00;100129.84;4996903;28;20033;-78
2022/09/30 01:14:42;;;;;;;2.60;1.20;;;;;;;10.02;100.00;100109.84;4996691;28;20124;-77
2022/09/30 01:17:35;;;;;;;1.33;0.80;;;;;;;10.14;100.00;100113.72;5013208;28;20064;-78
2022/09/30 01:20:29;;;;;;;1.48;1.00;;;;;;;10.18;100.00;100098.88;5027478;28;20099;-78
2022/09/30 01:23:13;;;;;;;3.20;0.98;;;;;;;10.12;100.00;100091.59;5009225;28;20048;-77
2022/09/30 01:26:07;;;;;;;2.75;1.08;;;;;;;10.22;100.00;100093.97;5029020;28;20032;-77
2022/09/30 01:28:51;;;;;;;1.90;1.05;;;;;;;10.26;100.00;100096.06;5013358;28;20033;-78
2022/09/30 01:31:22;;;;;;;1.65;0.90;;;;;;;10.25;100.00;100077.47;5032279;28;20082;-77
2022/09/30 01:34:27;;;;;;;2.60;1.00;;;;;;;10.22;100.00;100076.00;5034376;28;20104;-78
2022/09/30 01:37:20;;;;;;;0.88;0.70;;;;;;;10.16;100.00;100092.91;5019232;28;20100;-77
2022/09/30 01:39:57;;;;;;;6.30;1.13;;;;;;;10.04;100.00;100081.78;5027715;28;20029;-77
2022/09/30 01:42:26;;;;;;;0.60;0.50;;;;;;;9.87;100.00;100057.03;5033409;28;20034;-77
2022/09/30 01:44:54;;;;;;;1.90;0.73;;;;;;;9.94;100.00;100075.88;5030291;28;20091;-78
2022/09/30 01:47:25;;;;;;;1.67;1.05;;;;;;;9.93;100.00;100068.84;5033079;28;20061;-77
2022/09/30 01:50:06;;;;;;;1.85;0.80;;;;;;;9.94;100.00;100058.94;5016536;28;20506;-78
2022/09/30 01:52:32;;;;;;;1.30;0.93;;;;;;;9.98;100.00;100044.97;4998620;28;20033;-76
2022/09/30 01:54:57;;;;;;;1.08;0.85;;;;;;;10.00;100.00;100031.31;5039215;28;20526;-78
2022/09/30 01:57:38;;;;;;;5.43;1.00;;;;;;;10.06;100.00;100026.03;5034267;28;20124;-78
2022/09/30 02:00:07;;;;;;;2.50;0.85;;;;;;;10.04;100.00;100009.28;5027594;28;20126;-77
2022/09/30 02:02:35;;;;;;;1.52;0.80;;;;;;;10.15;100.00;100017.84;5016534;28;20468;-78
2022/09/30 02:05:04;;;;;;;1.33;1.00;;;;;;;10.13;100.00;99999.22;5000073;28;20029;-77
2022/09/30 02:07:44;;;;;;;3.70;1.23;;;;;;;10.15;100.00;99978.38;5016124;28;20139;-77
2022/09/30 02:10:19;;;;;;;1.48;1.08;;;;;;;10.18;100.00;99979.84;5016372;28;20037;-77
2022/09/30 02:12:49;;;;;;;2.17;1.00;;;;;;;10.15;100.00;99961.44;5024983;28;20033;-77
2022/09/30 02:15:21;;;;;;;2.42;0.90;;;;;;;10.26;100.00;99964.41;5001530;28;20484;-77
2022/09/30 02:17:52;;;;;;;2.58;0.95;;;;;;;10.30;100.00;99951.47;5001960;28;20366;-77
2022/09/30 02:20:25;;;;;;;2.75;1.13;;;;;;;10.34;100.00;99947.38;5015794;28;20127;-77
2022/09/30 02:22:55;;;;;;;1.55;0.93;;;;;;;10.43;100.00;99948.91;4999922;28;20036;-77
2022/09/30 02:25:29;;;;;;;2.25;0.98;;;;;;;10.48;100.00;99951.84;4999768;28;20040;-77
2022/09/30 02:27:58;;;;;;;3.20;2.10;;;;;;;10.49;100.00;99940.06;5032649;28;20033;-77
2022/09/30 02:30:24;;;;;;;1.48;0.88;;;;;;;10.43;100.00;99905.09;5015482;28;20104;-77
2022/09/30 02:33:06;;;;;;;1.38;0.73;;;;;;;10.57;100.00;99910.34;5032316;28;20112;-77
2022/09/30 02:35:43;;;;;;;1.70;1.00;;;;;;;10.67;100.00;99922.63;5014354;28;20026;-78
2022/09/30 02:38:16;;;;;;;3.83;0.93;;;;;;;10.68;100.00;99906.25;5015603;28;20025;-77
2022/09/30 02:41:07;;;;;;;1.42;0.90;;;;;;;10.69;100.00;99893.66;5042925;28;20032;-77
2022/09/30 02:43:33;;;;;;;1.67;1.15;;;;;;;10.66;100.00;99880.59;5003561;28;20038;-78
2022/09/30 02:46:17;;;;;;;1.50;0.80;;;;;;;10.71;100.00;99892.41;5028396;28;20028;-77
2022/09/30 02:49:06;;;;;;;2.58;1.20;;;;;;;10.67;100.00;99882.28;5020047;28;20026;-77
2022/09/30 02:51:41;;;;;;;1.10;0.98;;;;;;;10.60;100.00;99871.47;5022974;28;20033;-77
2022/09/30 02:54:19;;;;;;;4.07;0.90;;;;;;;10.47;100.00;99861.47;5029680;28;20049;-79
2022/09/30 02:56:57;;;;;;;0.85;0.70;;;;;;;10.29;100.00;99845.88;5010167;28;20151;-77
2022/09/30 02:59:24;;;;;;;1.70;0.80;;;;;;;10.26;100.00;99848.06;5003106;28;20029;-77
2022/09/30 03:01:50;;;;;;;1.75;0.88;;;;;;;10.18;100.00;99835.59;4998655;28;20124;-79
2022/09/30 03:04:21;;;;;;;1.23;0.82;;;;;;;10.20;100.00;99828.19;5032528;28;20128;-78
2022/09/30 03:06:47;;;;;;;2.60;1.00;;;;;;;10.15;100.00;99829.81;5014980;28;20041;-78
2022/09/30 03:09:13;;;;;;;0.90;0.70;;;;;;;10.16;100.00;99810.81;5014445;28;20021;-78
2022/09/30 03:11:39;;;;;;;0.77;0.70;;;;;;;10.01;100.00;99789.44;5031325;28;20380;-78
2022/09/30 03:14:08;;;;;;;2.65;0.90;;;;;;;10.16;100.00;99816.19;5031115;28;20154;-77
2022/09/30 03:16:42;;;;;;;3.05;1.05;;;;;;;10.13;100.00;99803.97;5031161;28;20064;-78
2022/09/30 03:19:11;;;;;;;1.35;0.90;;;;;;;10.13;100.00;99793.25;5012575;28;20048;-77
2022/09/30 03:22:02;;;;;;;1.52;0.88;;;;;;;9.98;100.00;99771.03;5032542;28;20037;-78
2022/09/30 03:24:54;;;;;;;2.10;1.13;;;;;;;10.14;100.00;99783.31;5031193;28;20081;-78
2022/09/30 03:27:31;;;;;;;1.75;0.68;;;;;;;10.16;100.00;99772.38;5013716;28;20053;-77
2022/09/30 03:29:57;;;;;;;1.23;0.50;;;;;;;10.16;100.00;99756.25;5014619;28;20029;-78
2022/09/30 03:32:40;;;;;;;0.85;0.70;;;;;;;10.17;100.00;99747.19;5031921;28;20025;-77
2022/09/30 03:35:31;;;;;;;4.82;0.90;;;;;;;10.18;100.00;99736.22;5032037;28;20212;-78
2022/09/30 03:38:15;;;;;;;0.73;0.68;;;;;;;10.18;100.00;99719.28;5007081;28;20483;-78
2022/09/30 03:40:47;;;;;;;1.35;0.75;;;;;;;10.26;100.00;99719.94;5011557;28;20029;-78
2022/09/30 03:43:33;;;;;;;0.90;0.60;;;;;;;10.29;100.00;99702.63;5028634;28;20025;-78
2022/09/30 03:46:07;;;;;;;0.88;0.65;;;;;;;10.33;100.00;99702.03;5002170;28;20065;-77
2022/09/30 03:48:35;;;;;;;0.85;0.85;;;;;;;10.37;100.00;99694.38;4991118;28;20079;-78
2022/09/30 03:51:01;;;;;;;0.60;0.52;;;;;;;10.41;100.00;99687.59;5013944;28;20037;-78
2022/09/30 03:53:27;;;;;;;1.27;0.60;;;;;;;10.43;100.00;99669.41;5013945;28;20364;-78
2022/09/30 03:55:53;;;;;;;0.57;0.55;;;;;;;10.50;100.00;99651.44;5030006;28;20025;-77
2022/09/30 03:58:22;;;;;;;0.50;0.50;;;;;;;10.56;100.00;99652.50;4997889;28;20392;-77
2022/09/30 04:00:53;;;;;;;0.75;0.75;;;;;;;10.59;100.00;99632.44;4994851;28;20077;-78
2022/09/30 04:03:20;;;;;;;0.70;0.70;;;;;;;10.44;100.00;99587.75;5030587;28;20464;-79
2022/09/30 04:05:46;;;;;;;0.35;0.35;;;;;;;10.62;100.00;99605.16;5029981;28;20029;-78
2022/09/30 04:08:12;;;;;;;0.60;0.60;;;;;;;10.61;100.00;99598.09;5030436;28;20052;-77
2022/09/30 04:10:40;;;;;;;0.50;0.50;;;;;;;10.56;100.00;99583.44;5029702;28;20463;-78
2022/09/30 04:13:07;;;;;;;0.50;0.50;;;;;;;10.63;100.00;99574.53;5029998;28;20087;-77
2022/09/30 04:15:33;;;;;;;0.50;0.45;;;;;;;10.68;100.00;99561.31;5029976;28;20033;-77
2022/09/30 04:17:59;;;;;;;0.40;0.40;;;;;;;10.70;100.00;99564.63;4997410;28;20043;-77
2022/09/30 04:20:24;;;;;;;0.30;0.30;;;;;;;10.74;100.00;99541.66;5026389;28;20026;-78
2022/09/30 04:22:50;;;;;;;0.30;0.30;;;;;;;10.82;100.00;99544.16;5013496;28;20051;-78
2022/09/30 04:25:16;;;;;;;0.40;0.40;;;;;;;10.83;100.00;99536.94;5031028;28;20037;-78
2022/09/30 04:27:41;;;;;;;0.50;0.50;;;;;;;10.86;100.00;99517.69;4997381;28;20083;-78
2022/09/30 04:30:07;;;;;;;0.30;0.30;;;;;;;10.93;100.00;99503.19;5029841;28;20464;-78
2022/09/30 04:32:33;;;;;;;0.50;0.50;;;;;;;10.78;100.00;99462.25;5013482;28;20041;-76
2022/09/30 04:34:59;;;;;;;0.60;0.60;;;;;;;10.90;100.00;99490.19;5062572;28;20029;-77
2022/09/30 04:37:24;;;;;;;0.65;0.65;;;;;;;10.99;100.00;99482.72;5013517;28;20106;-78
2022/09/30 04:39:50;;;;;;;0.40;0.40;;;;;;;11.02;100.00;99471.53;5030687;28;20035;-78
2022/09/30 04:42:17;;;;;;;0.30;0.30;;;;;;;11.00;100.00;99474.41;5013592;28;20036;-77
2022/09/30 04:44:43;;;;;;;0.80;0.80;;;;;;;11.07;100.00;99477.09;5030950;28;20439;-77
2022/09/30 04:47:08;;;;;;;0.30;0.30;;;;;;;11.16;100.00;99473.13;5029471;28;20125;-77
2022/09/30 04:49:34;;;;;;;0.82;0.65;;;;;;;11.20;100.00;99462.78;5013311;28;20067;-78
2022/09/30 04:52:00;;;;;;;0.38;0.38;;;;;;;11.24;100.00;99445.16;5002440;28;20030;-78
2022/09/30 04:54:26;;;;;;;1.77;1.40;;;;;;;11.28;100.00;99414.13;5013086;28;20040;-77
2022/09/30 04:56:51;;;;;;;0.38;0.38;;;;;;;11.29;100.00;99412.25;5013802;28;20040;-77
2022/09/30 04:59:17;;;;;;;0.50;0.50;;;;;;;11.36;100.00;99405.00;5029594;28;20375;-77
2022/09/30 05:01:43;;;;;;;0.60;0.60;;;;;;;11.41;100.00;99400.59;5030830;28;20090;-77
2022/09/30 05:04:11;;;;;;;0.50;0.50;;;;;;;11.41;100.00;99402.47;5029226;28;20033;-79
2022/09/30 05:06:39;;;;;;;0.43;0.43;;;;;;;11.51;100.00;99412.75;5031728;28;20048;-78
2022/09/30 05:09:05;;;;;;;0.40;0.40;;;;;;;11.52;100.00;99409.88;5033258;28;20057;-78
2022/09/30 05:11:31;;;;;;;0.88;0.73;;;;;;;11.53;100.00;99394.53;5033587;28;20037;-78
2022/09/30 05:13:57;;;;;;;0.50;0.50;;;;;;;11.42;100.00;99358.38;5033350;28;20047;-78
2022/09/30 05:16:22;;;;;;;0.82;0.63;;;;;;;11.58;100.00;99373.19;5017249;28;20048;-78
2022/09/30 05:18:48;;;;;;;0.30;0.30;;;;;;;11.61;100.00;99364.66;5016941;28;20087;-78
2022/09/30 05:21:16;;;;;;;0.63;0.63;;;;;;;11.64;100.00;99348.94;5016966;28;20030;-79
2022/09/30 05:23:42;;;;;;;0.63;0.63;;;;;;;11.68;100.00;99356.56;5032068;28;20048;-78
2022/09/30 05:26:08;;;;;;;0.80;0.60;;;;;;;11.66;100.00;99324.47;5047484;28;20408;-79
2022/09/30 05:28:33;;;;;;;0.40;0.40;;;;;;;11.72;100.00;99331.66;5016876;28;20083;-78
2022/09/30 05:31:01;;;;;;;0.73;0.65;;;;;;;11.75;100.00;99328.56;5016691;28;20392;-78
2022/09/30 05:33:30;;;;;;;1.23;0.70;;;;;;;11.79;100.00;99321.66;5028875;28;20029;-80
2022/09/30 05:36:01;;;;;;;0.38;0.38;;;;;;;11.77;100.00;99296.00;5016920;28;20488;-79
2022/09/30 05:38:27;;;;;;;0.43;0.43;;;;;;;11.82;100.00;99304.25;5030094;28;20031;-78
2022/09/30 05:40:53;;;;;;;0.50;0.50;;;;;;;11.81;100.00;99289.97;5030528;28;20035;-77
2022/09/30 05:43:19;;;;;;;0.50;0.40;;;;;;;11.96;100.00;99283.44;5009104;28;20494;-77
2022/09/30 05:45:53;;;;;;;0.52;0.52;;;;;;;11.99;100.00;99296.50;5016471;28;20045;-77
2022/09/30 05:48:19;;;;;;;0.85;0.60;;;;;;;11.96;100.00;99245.72;5032962;28;20036;-77
2022/09/30 05:50:50;;;;;;;0.50;0.50;;;;;;;11.98;100.00;99257.13;5032182;28;20025;-78
2022/09/30 05:53:17;;;;;;;0.60;0.60;;;;;;;11.98;100.00;99251.72;5032980;28;20164;-78
2022/09/30 05:55:46;;;;;;;0.52;0.52;;;;;;;12.06;100.00;99262.22;5016363;28;20136;-77
2022/09/30 05:58:15;;;;;;;0.55;0.55;;;;;;;12.06;100.00;99257.66;5029422;28;20033;-77
2022/09/30 06:00:43;;;;;;;0.40;0.40;;;;;;;12.08;100.00;99244.78;5000018;28;20065;-76
2022/09/30 06:03:09;;;;;;;0.60;0.60;;;;;;;12.12;100.00;99245.19;5031971;28;20053;-78
2022/09/30 06:05:36;;;;;;;0.50;0.50;;;;;;;12.20;100.00;99247.59;5032792;28;20183;-77
2022/09/30 06:08:02;;;;;;;0.85;0.50;;;;;;;12.24;100.00;99231.78;5032065;28;20060;-77
2022/09/30 06:10:28;;;;;;;1.10;0.40;;;;;;;12.29;100.00;99221.16;5033638;28;20036;-78
2022/09/30 06:12:54;;;;;;;0.40;0.40;;;;;;;12.31;100.00;99211.78;5032464;28;20041;-77
2022/09/30 06:15:19;;;;;;;1.45;0.65;;;;;;;12.33;100.00;99203.47;5012800;28;20072;-76
2022/09/30 06:17:51;;;;;;;0.30;0.30;;;;;;;12.39;100.00;99199.88;5026671;28;20033;-76
2022/09/30 06:20:16;;;;;;;0.43;0.43;;;;;;;12.42;100.00;99194.03;5029098;28;20052;-76
2022/09/30 06:22:42;;;;;;;0.40;0.40;;;;;;;12.45;100.00;99172.03;5031891;28;20037;-77
2022/09/30 06:25:08;;;;;;;0.57;0.57;;;;;;;12.42;100.00;99163.56;5032388;28;20104;-77
2022/09/30 06:27:34;;;;;;;0.40;0.32;;;;;;;12.48;100.00;99160.78;5015980;28;20490;-77
2022/09/30 06:30:00;;;;;;;1.10;0.63;;;;;;;12.57;100.00;99161.31;5031766;28;20030;-77
2022/09/30 06:32:25;;;;;;;0.30;0.30;;;;;;;12.61;100.00;99151.69;5014867;28;20029;-77
2022/09/30 06:34:54;;;;;;;0.30;0.30;;;;;;;12.64;100.00;99151.22;5032054;28;20064;-76
2022/09/30 06:37:23;;;;;;;0.40;0.40;;;;;;;12.65;100.00;99150.19;5032135;28;20034;-77
2022/09/30 06:39:49;;;;;;;0.40;0.40;;;;;;;12.69;100.00;99139.78;5015850;28;20044;-77
2022/09/30 06:42:16;;;;;;;0.40;0.40;;;;;;;12.73;100.00;99131.00;5015882;28;20037;-77
2022/09/30 06:44:43;;;;;;;0.50;0.50;;;;;;;12.76;100.00;99130.53;5023681;28;20091;-77
2022/09/30 06:47:09;;;;;;;1.45;0.90;;;;;;;12.81;100.00;99107.44;5016342;28;20034;-78
2022/09/30 06:49:35;;;;;;;0.43;0.43;;;;;;;12.82;100.00;99104.50;5028193;28;20033;-77
2022/09/30 06:52:00;;;;;;;1.00;0.60;;;;;;;12.87;100.00;99112.72;5032201;28;20464;-78
2022/09/30 06:54:29;;;;;;;1.23;0.57;;;;;;;12.89;100.00;99104.44;5031757;28;20120;-77
2022/09/30 06:56:56;;;;;;;0.55;0.50;;;;;;;12.94;100.00;99108.06;5007645;28;20100;-78
2022/09/30 06:59:23;;;;;;;0.40;0.40;;;;;;;12.94;100.00;99082.97;5031118;28;20032;-78
2022/09/30 07:01:49;;;;;;;0.30;0.30;;;;;;;12.98;100.00;99087.66;5005643;28;20320;-78
2022/09/30 07:04:15;;;;;;;0.82;0.52;;;;;;;13.03;100.00;99092.34;5030212;28;20072;-77
2022/09/30 07:06:41;;;;;;;0.45;0.40;;;;;;;13.07;100.00;99079.22;5014419;28;20120;-77
2022/09/30 07:09:08;;;;;;;0.30;0.30;;;;;;;13.10;100.00;99062.59;5014966;28;20132;-78
2022/09/30 07:11:35;;;;;;;0.35;0.35;;;;;;;13.09;100.00;99064.44;4998356;28;20033;-77
2022/09/30 07:14:01;;;;;;;0.30;0.30;;;;;;;13.15;100.00;99066.22;5030997;28;20025;-78
2022/09/30 07:16:26;;;;;;;0.30;0.30;;;;;;;13.18;100.00;99064.94;5031395;28;20063;-78
2022/09/30 07:18:53;;;;;;;0.50;0.47;;;;;;;13.20;100.00;99063.63;5014617;28;20030;-78
2022/09/30 07:21:18;;;;;;;0.45;0.40;;;;;;;13.23;100.00;99064.19;5014444;28;20040;-77
2022/09/30 07:23:46;;;;;;;1.17;0.50;;;;;;;13.27;100.00;99033.03;5011537;28;20037;-78
2022/09/30 07:26:17;;;;;;;0.30;0.30;;;;;;;13.24;100.00;99028.09;5030671;28;20091;-77
2022/09/30 07:28:44;;;;;;;0.30;0.30;;;;;;;13.30;100.00;99029.84;5013915;28;20132;-77
2022/09/30 07:31:17;;;;;;;0.30;0.30;;;;;;;13.36;100.00;99018.09;5030835;28;20029;-78
2022/09/30 07:33:43;;;;;;;0.40;0.40;;;;;;;13.42;100.00;98998.28;5030874;28;20040;-77
2022/09/30 07:36:09;;;;;;;0.60;0.40;;;;;;;13.47;100.00;98998.38;5030732;28;20037;-77
2022/09/30 07:38:37;;;;;;;0.30;0.30;;;;;;;13.49;100.00;98993.56;5030636;28;20056;-78
2022/09/30 07:41:14;;;;;;;0.30;0.30;;;;;;;13.54;100.00;98973.94;5029780;28;20033;-78
2022/09/30 07:43:43;;;;;;;0.73;0.40;;;;;;;13.59;100.00;98972.16;5030629;28;20076;-77
2022/09/30 07:46:12;;;;;;;0.30;0.30;;;;;;;13.61;100.00;98959.25;5030455;28;20029;-77
2022/09/30 07:48:46;;;;;;;0.40;0.40;;;;;;;13.67;100.00;98962.88;5040673;28;20037;-78
2022/09/30 07:51:14;;;;;;;0.40;0.40;;;;;;;13.72;100.00;98940.53;5030186;28;20510;-78
2022/09/30 07:53:42;;;;;;;0.30;0.30;;;;;;;13.76;100.00;98917.38;5013658;28;20467;-77
2022/09/30 07:56:08;;;;;;;0.30;0.30;;;;;;;13.79;100.00;98904.22;5013804;28;20182;-77
2022/09/30 07:58:34;;;;;;;0.30;0.30;;;;;;;13.81;100.00;98899.41;5026957;28;20029;-77
2022/09/30 08:01:01;;;;;;;0.30;0.30;;;;;;;13.90;100.00;98878.22;5030428;28;20044;-77
2022/09/30 08:03:27;;;;;;;0.85;0.50;;;;;;;13.92;100.00;98859.88;4997400;28;20399;-78
2022/09/30 08:05:53;;;;;;;0.30;0.30;;;;;;;14.00;100.00;98856.78;5031314;28;20057;-77
2022/09/30 08:08:19;;;;;;;0.20;0.20;;;;;;;14.00;100.00;98873.00;5030047;28;20069;-77
2022/09/30 08:10:44;;;;;;;0.40;0.40;;;;;;;14.02;100.00;98876.25;5031265;28;20049;-76
2022/09/30 08:13:13;;;;;;;0.30;0.30;;;;;;;14.01;100.00;98863.00;5030525;28;20033;-76
2022/09/30 08:15:39;;;;;;;0.30;0.30;;;;;;;14.11;100.00;98873.97;5030274;28;20029;-76
2022/09/30 08:18:05;;;;;;;0.30;0.30;;;;;;;14.17;100.00;98864.06;4997446;28;20037;-76
2022/09/30 08:20:31;;;;;;;0.30;0.30;;;;;;;14.19;100.00;98872.75;5013361;28;20029;-76
2022/09/30 08:22:57;;;;;;;0.68;0.68;;;;;;;14.30;100.00;98869.16;5031407;28;20487;-76
2022/09/30 08:25:23;;;;;;;0.30;0.30;;;;;;;14.36;100.00;98854.63;4997164;28;20033;-77
2022/09/30 08:27:49;;;;;;;0.30;0.30;;;;;;;14.35;100.00;98861.13;5014046;28;20029;-76
2022/09/30 08:30:14;;;;;;;0.30;0.30;;;;;;;14.33;100.00;98859.72;5029848;28;20028;-77
2022/09/30 08:32:40;;;;;;;0.40;0.40;;;;;;;14.32;100.00;98845.41;5026859;28;20033;-76
2022/09/30 08:35:06;;;;;;;0.30;0.30;;;;;;;14.29;100.00;98848.59;5029561;28;20043;-76
2022/09/30 08:37:32;;;;;;;0.30;0.30;;;;;;;14.34;100.00;98862.16;5030002;28;20387;-76
2022/09/30 08:39:57;;;;;;;0.75;0.40;;;;;;;14.43;100.00;98855.28;4996728;28;20064;-76
2022/09/30 08:42:38;;;;;;;0.30;0.30;;;;;;;14.49;100.00;98848.06;5029306;28;20045;-76
2022/09/30 08:45:19;;;;;;;0.38;0.38;;;;;;;14.56;100.00;98858.75;5029760;28;20026;-76
2022/09/30 08:48:13;;;;;;;0.40;0.40;;;;;;;14.64;100.00;98837.50;5028183;28;20357;-77
2022/09/30 08:50:50;;;;;;;0.30;0.30;;;;;;;14.78;100.00;98851.47;5013547;28;20068;-77
2022/09/30 08:53:26;;;;;;;0.55;0.52;;;;;;;14.87;100.00;98835.63;5029831;28;20034;-76
2022/09/30 08:55:55;;;;;;;0.70;0.50;;;;;;;14.94;100.00;98856.03;5029740;28;20041;-77
2022/09/30 08:58:27;;;;;;;3.72;0.63;;;;;;;14.97;100.00;98853.88;5013409;28;20447;-77
2022/09/30 09:00:56;;;;;;;7.10;1.00;;;;;;;15.01;100.00;98850.44;5013302;28;20083;-77
2022/09/30 09:03:27;;;;;;;0.30;0.30;;;;;;;15.03;100.00;98848.31;5013303;28;20025;-77
2022/09/30 09:06:21;;;;;;;1.05;1.05;;;;;;;15.05;100.00;98846.16;5026362;28;20037;-77
2022/09/30 09:08:59;;;;;;;0.55;0.30;;;;;;;15.06;100.00;98852.41;5025233;28;20029;-78
2022/09/30 09:11:48;;;;;;;0.45;0.40;;;;;;;15.06;100.00;98830.75;5013332;28;20029;-77
2022/09/30 09:14:35;;;;;;;0.70;0.40;;;;;;;15.08;100.00;98829.44;5003657;28;20038;-77
2022/09/30 09:17:05;;;;;;;0.43;0.30;;;;;;;15.09;100.00;98839.16;5029570;28;20040;-77
2022/09/30 09:19:42;;;;;;;1.08;0.40;;;;;;;15.10;100.00;98826.44;5013235;28;20499;-77
2022/09/30 09:22:09;;;;;;;4.68;0.88;;;;;;;15.11;100.00;98841.59;5028863;28;20033;-78
2022/09/30 09:24:43;;;;;;;2.50;0.60;;;;;;;15.11;100.00;98845.16;5012872;28;20087;-77
2022/09/30 09:27:44;;;;;;;1.75;0.68;;;;;;;15.16;100.00;98839.81;5029413;28;20038;-79
2022/09/30 09:30:12;;;;;;;0.77;0.40;;;;;;;15.21;100.00;98849.84;5006305;28;20095;-77
2022/09/30 09:32:38;;;;;;;0.73;0.47;;;;;;;15.30;100.00;98842.94;4997007;28;20468;-77
2022/09/30 09:35:15;;;;;;;0.40;0.40;;;;;;;15.38;100.00;98812.69;5030424;28;20043;-78
2022/09/30 09:41:01;;;;;;;1.13;0.63;;;;;;;15.48;100.00;98821.97;5010205;28;20029;-77
2022/09/30 09:43:51;;;;;;;1.70;0.80;;;;;;;15.57;100.00;98828.59;5029350;28;20046;-77
2022/09/30 09:46:40;;;;;;;0.30;0.30;;;;;;;15.52;100.00;98823.94;5029136;28;20045;-78
2022/09/30 09:49:19;;;;;;;0.38;0.38;;;;;;;15.67;100.00;98808.94;5014931;28;20033;-77
2022/09/30 09:52:22;;;;;;;0.30;0.30;;;;;;;15.75;100.00;98827.44;5013570;28;20049;-77
2022/09/30 09:54:51;;;;;;;0.35;0.35;;;;;;;15.73;100.00;98821.47;5020718;28;20073;-77
2022/09/30 09:57:24;;;;;;;0.95;0.70;;;;;;;15.77;100.00;98823.41;5029991;28;20053;-78
2022/09/30 09:59:57;;;;;;;;;;;;;;;15.79;100.00;98810.41;5032859;28;20063;-79
2022/09/30 10:02:28;;;;;;;0.40;0.38;;;;;;;15.81;100.00;98799.31;5032728;28;20011;-77
2022/09/30 10:05:01;;;;;;;1.05;0.60;;;;;;;15.86;100.00;98809.38;5028109;28;20033;-77
2022/09/30 10:07:28;;;;;;;;;;;;;;;15.81;100.00;98807.44;5029658;28;20048;-76
2022/09/30 10:10:17;;;;;;;1.20;0.45;;;;;;;15.78;100.00;98797.13;5016047;28;19996;-77
2022/09/30 10:12:44;;;;;;;1.33;0.60;;;;;;;15.72;100.00;98804.41;5029404;28;20084;-77
2022/09/30 10:15:18;;;;;;;3.25;1.05;;;;;;;15.67;100.00;98793.47;5001551;28;20033;-76
2022/09/30 10:17:53;;;;;;;1.20;0.50;;;;;;;15.72;100.00;98798.97;5032287;28;20037;-78
2022/09/30 10:20:33;;;;;;;0.40;0.40;;;;;;;15.74;100.00;98802.22;5031798;28;20030;-77
2022/09/30 10:23:07;;;;;;;1.17;0.50;;;;;;;15.74;100.00;98801.41;5015442;28;20084;-76
2022/09/30 10:25:33;;;;;;;2.85;0.75;;;;;;;15.70;100.00;98795.69;5030608;28;20040;-76
2022/09/30 10:28:01;;;;;;;2.42;0.68;;;;;;;15.67;100.00;98795.38;5031807;28;20029;-77
2022/09/30 10:30:34;;;;;;;2.97;0.73;;;;;;;15.71;100.00;98786.47;5010559;28;20116;-75
2022/09/30 10:33:02;;;;;;;;;;;;;;;15.72;100.00;98790.84;5015830;28;20468;-76
2022/09/30 10:35:28;;;;;;;0.30;0.30;;;;;;;15.77;100.00;98792.75;5031857;28;19967;-76
2022/09/30 10:37:53;;;;;;;0.80;0.52;;;;;;;15.82;100.00;98777.38;5031730;28;20065;-79
2022/09/30 10:40:25;;;;;;;0.50;0.50;;;;;;;15.85;100.00;98791.47;5031485;28;20037;-76
2022/09/30 10:42:51;;;;;;;0.98;0.73;;;;;;;15.90;100.00;98807.78;5015719;28;20025;-76
2022/09/30 10:45:21;;;;;;;1.00;0.50;;;;;;;15.97;100.00;98802.97;5015439;28;20036;-76
2022/09/30 10:47:51;;;;;;;0.80;0.40;;;;;;;15.92;100.00;98820.00;5015143;28;20080;-76
2022/09/30 10:50:20;;;;;;;1.42;0.60;;;;;;;16.03;100.00;98823.59;5031776;28;20039;-76
2022/09/30 10:52:52;;;;;;;2.63;0.75;;;;;;;16.08;100.00;98842.63;4998802;28;20117;-75
2022/09/30 10:55:21;;;;;;;1.10;0.75;;;;;;;16.26;100.00;98857.69;5031396;28;20025;-76
2022/09/30 10:57:48;;;;;;;2.20;0.63;;;;;;;16.27;100.00;98846.59;5031644;28;20037;-76
2022/09/30 11:00:24;;;;;;;2.67;0.88;;;;;;;16.47;100.00;98854.03;5014694;28;20117;-75
2022/09/30 11:03:11;;;;;;;4.57;0.77;;;;;;;16.54;100.00;98875.53;5030801;28;20030;-76
2022/09/30 11:05:42;;;;;;;1.35;0.65;;;;;;;16.43;100.00;98871.09;5041906;28;20037;-76
2022/09/30 11:08:14;;;;;;;2.92;0.88;;;;;;;16.37;100.00;98866.72;5012989;28;20044;-76
2022/09/30 11:11:10;;;;;;;3.92;0.82;;;;;;;16.58;100.00;98883.97;5032238;28;20033;-76
2022/09/30 11:13:49;;;;;;;2.38;0.75;;;;;;;16.66;100.00;98870.72;5015109;28;20038;-76
2022/09/30 11:16:20;;;;;;;0.50;0.50;;;;;;;16.62;100.00;98882.38;5002521;28;20068;-76
2022/09/30 11:18:55;;;;;;;0.30;0.30;;;;;;;16.45;100.00;98879.81;5014683;28;20044;-76
2022/09/30 11:21:45;;;;;;;6.10;0.88;;;;;;;16.45;100.00;98894.19;5011638;28;20032;-76
2022/09/30 11:24:28;;;;;;;0.73;0.40;;;;;;;16.36;100.00;98897.66;5031582;28;20083;-76
2022/09/30 11:27:29;;;;;;;1.70;0.77;;;;;;;16.24;100.00;98909.47;5015074;28;20033;-77
2022/09/30 11:30:10;;;;;;;0.30;0.30;;;;;;;16.18;100.00;98915.13;5015178;28;20032;-77
2022/09/30 11:32:39;;;;;;;4.97;0.77;;;;;;;16.20;100.00;98932.75;5031350;28;20051;-77
2022/09/30 11:35:29;;;;;;;1.88;0.55;;;;;;;16.26;100.00;98918.16;5031002;28;20025;-78
2022/09/30 11:38:15;;;;;;;5.00;1.10;;;;;;;16.29;100.00;98935.81;5028598;28;20038;-78
2022/09/30 11:40:51;;;;;;;12.38;2.10;;;;;;;16.31;100.00;98966.22;5008855;28;20048;-80
2022/09/30 11:43:49;;;;;;;7.82;1.75;;;;;;;16.45;100.00;98947.63;5014939;28;20114;-78
2022/09/30 11:46:34;;;;;;;0.50;0.50;;;;;;;16.66;100.00;98940.47;5014793;28;20486;-78